Lady G — V7ON5 — position and weather

sailwx.info

Track history (hours):
 
Tides and Currents Weather Stations Pressure Air Temp Water Temp Dewpoint Dewpoint Depression Visibility Wind Speed Wind Dir Waves Ship Positions

Lady G

Last reported at 2015-Jun-19 20:33 UTC. Time now 2015-Sep-03 04:31 UTC.
Position N 40°59' W 072°28'.
Warning: this ship's position is months out of date.

; draft 2 m.

Type: Fishing. MMSI: 538070487.

Date/timePositionNaut miles runAvg speedWind from/ knotsBaromVisibWave heightAir tempDewpointWater temp
2015-Jun-19 20:33N 40°59' W 072°28'0 0.0
2015-Jun-19 19:33N 40°59' W 072°28'1 1.0
2015-Jun-19 18:34N 40°59' W 072°27'9 9.4
2015-Jun-19 17:33N 41°07' W 072°20'2019.8
2015-Jun-19 16:34N 41°07' W 071°54'6 5.8
2015-Jun-19 15:34N 41°01' W 071°52'0 0.2
2015-Jun-19 14:33N 41°01' W 071°52'5 5.4
2015-Jun-19 13:33N 40°59' W 071°59'2423.8
2015-Jun-19 12:33N 40°50' W 072°29'0 0.2
2015-Jun-19 11:33N 40°51' W 072°29'0 0.0
2015-Jun-19 10:33N 40°51' W 072°29'0 0.0
2015-Jun-19 09:33N 40°51' W 072°29'0 0.0
2015-Jun-19 08:32N 40°51' W 072°29'0 0.0
2015-Jun-19 07:33N 40°51' W 072°29'0 0.0
2015-Jun-19 06:33N 40°51' W 072°29'0 0.0
2015-Jun-19 05:31N 40°51' W 072°29'0 0.0
2015-Jun-19 04:26N 40°51' W 072°29'0 0.0
2015-Jun-19 03:33N 40°51' W 072°29'0 0.0
2015-Jun-19 02:33N 40°51' W 072°29'0 0.0
2015-Jun-19 01:33N 40°51' W 072°29'0 0.0
2015-Jun-19 00:33N 40°51' W 072°29'0 0.0
2015-Jun-18 23:33N 40°51' W 072°29'0 0.0
2015-Jun-18 22:33N 40°51' W 072°29'0 0.0
2015-Jun-18 21:33N 40°51' W 072°29'0 0.0
2015-Jun-18 20:33N 40°51' W 072°29'2323.1
2015-Jun-18 19:34N 40°31' W 072°45'3128.5
2015-Jun-18 18:29N 40°06' W 073°08'  
2015-Jun-16 13:34N 34°22' W 076°14'2727.0
2015-Jun-16 12:34N 34°15' W 076°45'  
Track history (hours):
 
Tides and Currents Weather Stations Pressure Air Temp Water Temp Dewpoint Dewpoint Depression Visibility Wind Speed Wind Dir Waves Ship Positions

Lady G

Last reported at 2015-Jun-19 20:33 UTC. Time now 2015-Sep-03 04:31 UTC.
Position N 40°59' W 072°28'.
Warning: this ship's position is months out of date.

; draft 2 m.

Type: Fishing. MMSI: 538070487.

Date/timePositionNaut miles runAvg speedWind from/ knotsBaromVisibWave heightAir tempDewpointWater temp
2015-Jun-19 20:33N 40°59' W 072°28'0 0.0
2015-Jun-19 19:33N 40°59' W 072°28'1 1.0
2015-Jun-19 18:34N 40°59' W 072°27'9 9.4
2015-Jun-19 17:33N 41°07' W 072°20'2019.8
2015-Jun-19 16:34N 41°07' W 071°54'6 5.8
2015-Jun-19 15:34N 41°01' W 071°52'0 0.2
2015-Jun-19 14:33N 41°01' W 071°52'5 5.4
2015-Jun-19 13:33N 40°59' W 071°59'2423.8
2015-Jun-19 12:33N 40°50' W 072°29'0 0.2
2015-Jun-19 11:33N 40°51' W 072°29'0 0.0
2015-Jun-19 10:33N 40°51' W 072°29'0 0.0
2015-Jun-19 09:33N 40°51' W 072°29'0 0.0
2015-Jun-19 08:32N 40°51' W 072°29'0 0.0
2015-Jun-19 07:33N 40°51' W 072°29'0 0.0
2015-Jun-19 06:33N 40°51' W 072°29'0 0.0
2015-Jun-19 05:31N 40°51' W 072°29'0 0.0
2015-Jun-19 04:26N 40°51' W 072°29'0 0.0
2015-Jun-19 03:33N 40°51' W 072°29'0 0.0
2015-Jun-19 02:33N 40°51' W 072°29'0 0.0
2015-Jun-19 01:33N 40°51' W 072°29'0 0.0
2015-Jun-19 00:33N 40°51' W 072°29'0 0.0
2015-Jun-18 23:33N 40°51' W 072°29'0 0.0
2015-Jun-18 22:33N 40°51' W 072°29'0 0.0
2015-Jun-18 21:33N 40°51' W 072°29'0 0.0
2015-Jun-18 20:33N 40°51' W 072°29'2323.1
2015-Jun-18 19:34N 40°31' W 072°45'3128.5
2015-Jun-18 18:29N 40°06' W 073°08'  
2015-Jun-16 13:34N 34°22' W 076°14'2727.0
2015-Jun-16 12:34N 34°15' W 076°45'  

Dump ship's entire track history